sensor_id;sensor_type;location;lat;lon;timestamp;P1;durP1;ratioP1;P2;durP2;ratioP2
26038;SDS011;13815;52.374;4.882;2023-04-06T00:01:24;56.30;;;37.58;;
26038;SDS011;13815;52.374;4.882;2023-04-06T00:03:49;52.25;;;36.15;;
26038;SDS011;13815;52.374;4.882;2023-04-06T00:06:15;53.65;;;35.00;;
26038;SDS011;13815;52.374;4.882;2023-04-06T00:08:40;54.33;;;35.60;;
26038;SDS011;13815;52.374;4.882;2023-04-06T00:11:06;51.85;;;35.05;;
26038;SDS011;13815;52.374;4.882;2023-04-06T00:13:31;55.28;;;35.53;;
26038;SDS011;13815;52.374;4.882;2023-04-06T00:15:57;54.45;;;35.08;;
26038;SDS011;13815;52.374;4.882;2023-04-06T00:18:22;51.15;;;33.97;;
26038;SDS011;13815;52.374;4.882;2023-04-06T00:20:48;51.60;;;33.33;;
26038;SDS011;13815;52.374;4.882;2023-04-06T00:23:13;53.53;;;33.80;;
26038;SDS011;13815;52.374;4.882;2023-04-06T00:25:38;50.95;;;33.70;;
26038;SDS011;13815;52.374;4.882;2023-04-06T00:28:04;56.47;;;35.72;;
26038;SDS011;13815;52.374;4.882;2023-04-06T00:30:29;55.45;;;35.13;;
26038;SDS011;13815;52.374;4.882;2023-04-06T00:32:55;52.10;;;34.95;;
26038;SDS011;13815;52.374;4.882;2023-04-06T00:35:20;55.03;;;36.33;;
26038;SDS011;13815;52.374;4.882;2023-04-06T00:37:46;52.05;;;34.90;;
26038;SDS011;13815;52.374;4.882;2023-04-06T00:40:12;52.58;;;35.40;;
26038;SDS011;13815;52.374;4.882;2023-04-06T00:42:37;51.80;;;34.78;;
26038;SDS011;13815;52.374;4.882;2023-04-06T00:45:03;51.03;;;34.30;;
26038;SDS011;13815;52.374;4.882;2023-04-06T00:47:29;51.42;;;34.17;;
26038;SDS011;13815;52.374;4.882;2023-04-06T00:49:54;52.13;;;34.90;;
26038;SDS011;13815;52.374;4.882;2023-04-06T00:52:20;55.03;;;35.40;;
26038;SDS011;13815;52.374;4.882;2023-04-06T00:54:45;53.28;;;35.03;;
26038;SDS011;13815;52.374;4.882;2023-04-06T00:57:11;52.63;;;35.25;;
26038;SDS011;13815;52.374;4.882;2023-04-06T00:59:37;52.85;;;36.05;;
26038;SDS011;13815;52.374;4.882;2023-04-06T01:02:02;54.88;;;36.05;;
26038;SDS011;13815;52.374;4.882;2023-04-06T01:04:28;54.28;;;34.25;;
26038;SDS011;13815;52.374;4.882;2023-04-06T01:06:53;51.42;;;34.85;;
26038;SDS011;13815;52.374;4.882;2023-04-06T01:09:18;56.75;;;36.50;;
26038;SDS011;13815;52.374;4.882;2023-04-06T01:11:44;53.88;;;36.65;;
26038;SDS011;13815;52.374;4.882;2023-04-06T01:14:09;52.45;;;35.60;;
26038;SDS011;13815;52.374;4.882;2023-04-06T01:16:35;54.90;;;34.72;;
26038;SDS011;13815;52.374;4.882;2023-04-06T01:19:01;55.05;;;35.60;;
26038;SDS011;13815;52.374;4.882;2023-04-06T01:21:32;55.22;;;35.53;;
26038;SDS011;13815;52.374;4.882;2023-04-06T01:23:57;51.63;;;35.08;;
26038;SDS011;13815;52.374;4.882;2023-04-06T01:26:23;55.25;;;35.75;;
26038;SDS011;13815;52.374;4.882;2023-04-06T01:28:48;50.83;;;34.08;;
26038;SDS011;13815;52.374;4.882;2023-04-06T01:31:13;50.78;;;33.88;;
26038;SDS011;13815;52.374;4.882;2023-04-06T01:33:39;55.15;;;35.85;;
26038;SDS011;13815;52.374;4.882;2023-04-06T01:36:05;50.95;;;34.92;;
26038;SDS011;13815;52.374;4.882;2023-04-06T01:38:31;57.03;;;35.20;;
26038;SDS011;13815;52.374;4.882;2023-04-06T01:40:56;51.88;;;33.35;;
26038;SDS011;13815;52.374;4.882;2023-04-06T01:43:21;49.28;;;32.80;;
26038;SDS011;13815;52.374;4.882;2023-04-06T01:45:47;48.95;;;31.80;;
26038;SDS011;13815;52.374;4.882;2023-04-06T01:48:13;50.25;;;33.20;;
26038;SDS011;13815;52.374;4.882;2023-04-06T01:50:38;50.58;;;33.70;;
26038;SDS011;13815;52.374;4.882;2023-04-06T01:53:03;49.95;;;33.38;;
26038;SDS011;13815;52.374;4.882;2023-04-06T01:55:29;50.35;;;33.72;;
26038;SDS011;13815;52.374;4.882;2023-04-06T01:57:54;52.17;;;33.30;;
26038;SDS011;13815;52.374;4.882;2023-04-06T02:00:20;46.75;;;31.40;;
26038;SDS011;13815;52.374;4.882;2023-04-06T02:02:45;45.08;;;30.33;;
26038;SDS011;13815;52.374;4.882;2023-04-06T02:05:11;49.00;;;31.80;;
26038;SDS011;13815;52.374;4.882;2023-04-06T02:07:36;45.15;;;29.88;;
26038;SDS011;13815;52.374;4.882;2023-04-06T02:10:02;44.97;;;30.70;;
26038;SDS011;13815;52.374;4.882;2023-04-06T02:14:55;45.30;;;29.58;;
26038;SDS011;13815;52.374;4.882;2023-04-06T02:17:20;44.08;;;30.60;;
26038;SDS011;13815;52.374;4.882;2023-04-06T02:19:46;48.22;;;31.63;;
26038;SDS011;13815;52.374;4.882;2023-04-06T02:22:11;48.63;;;31.60;;
26038;SDS011;13815;52.374;4.882;2023-04-06T02:24:36;47.35;;;31.80;;
26038;SDS011;13815;52.374;4.882;2023-04-06T02:27:02;48.97;;;32.25;;
26038;SDS011;13815;52.374;4.882;2023-04-06T02:29:27;48.15;;;31.75;;
26038;SDS011;13815;52.374;4.882;2023-04-06T02:31:53;44.45;;;30.85;;
26038;SDS011;13815;52.374;4.882;2023-04-06T02:34:18;46.45;;;30.73;;
26038;SDS011;13815;52.374;4.882;2023-04-06T02:36:44;46.88;;;30.88;;
26038;SDS011;13815;52.374;4.882;2023-04-06T02:39:10;44.13;;;30.95;;
26038;SDS011;13815;52.374;4.882;2023-04-06T02:41:36;47.70;;;32.30;;
26038;SDS011;13815;52.374;4.882;2023-04-06T02:44:02;49.30;;;32.65;;
26038;SDS011;13815;52.374;4.882;2023-04-06T02:46:28;46.65;;;33.38;;
26038;SDS011;13815;52.374;4.882;2023-04-06T02:48:53;45.80;;;32.58;;
26038;SDS011;13815;52.374;4.882;2023-04-06T02:51:18;45.28;;;32.17;;
26038;SDS011;13815;52.374;4.882;2023-04-06T02:53:44;50.33;;;34.15;;
26038;SDS011;13815;52.374;4.882;2023-04-06T02:56:11;46.33;;;32.08;;
26038;SDS011;13815;52.374;4.882;2023-04-06T02:58:36;45.35;;;32.08;;
26038;SDS011;13815;52.374;4.882;2023-04-06T03:01:02;49.92;;;32.20;;
26038;SDS011;13815;52.374;4.882;2023-04-06T03:03:28;49.85;;;32.40;;
26038;SDS011;13815;52.374;4.882;2023-04-06T03:05:53;48.00;;;31.80;;
26038;SDS011;13815;52.374;4.882;2023-04-06T03:08:19;48.80;;;32.80;;
26038;SDS011;13815;52.374;4.882;2023-04-06T03:10:45;60.10;;;34.35;;
26038;SDS011;13815;52.374;4.882;2023-04-06T03:13:10;48.35;;;32.08;;
26038;SDS011;13815;52.374;4.882;2023-04-06T03:15:36;52.88;;;33.55;;
26038;SDS011;13815;52.374;4.882;2023-04-06T03:18:01;52.97;;;33.00;;
26038;SDS011;13815;52.374;4.882;2023-04-06T03:20:26;48.35;;;31.60;;
26038;SDS011;13815;52.374;4.882;2023-04-06T03:22:55;53.58;;;33.70;;
26038;SDS011;13815;52.374;4.882;2023-04-06T03:25:20;53.05;;;33.92;;
26038;SDS011;13815;52.374;4.882;2023-04-06T03:27:45;49.42;;;33.20;;
26038;SDS011;13815;52.374;4.882;2023-04-06T03:30:14;52.65;;;33.40;;
26038;SDS011;13815;52.374;4.882;2023-04-06T03:32:41;49.90;;;32.20;;
26038;SDS011;13815;52.374;4.882;2023-04-06T03:35:06;48.55;;;32.33;;
26038;SDS011;13815;52.374;4.882;2023-04-06T03:37:31;48.55;;;32.10;;
26038;SDS011;13815;52.374;4.882;2023-04-06T03:39:57;50.45;;;32.70;;
26038;SDS011;13815;52.374;4.882;2023-04-06T03:42:22;48.42;;;31.70;;
26038;SDS011;13815;52.374;4.882;2023-04-06T03:44:48;48.28;;;31.90;;
26038;SDS011;13815;52.374;4.882;2023-04-06T03:47:13;48.45;;;31.55;;
26038;SDS011;13815;52.374;4.882;2023-04-06T03:49:38;49.95;;;33.20;;
26038;SDS011;13815;52.374;4.882;2023-04-06T03:52:04;49.53;;;33.08;;
26038;SDS011;13815;52.374;4.882;2023-04-06T03:54:29;48.15;;;32.00;;
26038;SDS011;13815;52.374;4.882;2023-04-06T03:56:54;51.08;;;32.15;;
26038;SDS011;13815;52.374;4.882;2023-04-06T03:59:20;48.15;;;32.35;;
26038;SDS011;13815;52.374;4.882;2023-04-06T04:01:45;47.63;;;31.52;;
26038;SDS011;13815;52.374;4.882;2023-04-06T04:04:11;49.40;;;31.40;;
26038;SDS011;13815;52.374;4.882;2023-04-06T04:06:36;48.00;;;31.73;;
26038;SDS011;13815;52.374;4.882;2023-04-06T04:09:01;46.75;;;30.77;;
26038;SDS011;13815;52.374;4.882;2023-04-06T04:11:27;49.67;;;30.30;;
26038;SDS011;13815;52.374;4.882;2023-04-06T04:13:53;51.90;;;31.23;;
26038;SDS011;13815;52.374;4.882;2023-04-06T04:16:18;46.80;;;30.95;;
26038;SDS011;13815;52.374;4.882;2023-04-06T04:18:43;50.10;;;31.10;;
26038;SDS011;13815;52.374;4.882;2023-04-06T04:21:10;47.13;;;30.60;;
26038;SDS011;13815;52.374;4.882;2023-04-06T04:23:35;46.47;;;29.70;;
26038;SDS011;13815;52.374;4.882;2023-04-06T04:26:01;49.47;;;30.42;;
26038;SDS011;13815;52.374;4.882;2023-04-06T04:28:26;45.92;;;29.38;;
26038;SDS011;13815;52.374;4.882;2023-04-06T04:30:51;45.83;;;29.20;;
26038;SDS011;13815;52.374;4.882;2023-04-06T04:33:17;49.67;;;33.40;;
26038;SDS011;13815;52.374;4.882;2023-04-06T04:35:42;52.17;;;32.25;;
26038;SDS011;13815;52.374;4.882;2023-04-06T04:38:07;49.00;;;33.15;;
26038;SDS011;13815;52.374;4.882;2023-04-06T04:40:33;52.13;;;31.95;;
26038;SDS011;13815;52.374;4.882;2023-04-06T04:42:58;52.20;;;32.50;;
26038;SDS011;13815;52.374;4.882;2023-04-06T04:45:23;48.97;;;32.13;;
26038;SDS011;13815;52.374;4.882;2023-04-06T04:47:48;48.13;;;31.95;;
26038;SDS011;13815;52.374;4.882;2023-04-06T04:50:14;53.90;;;34.35;;
26038;SDS011;13815;52.374;4.882;2023-04-06T04:52:40;48.70;;;33.10;;
26038;SDS011;13815;52.374;4.882;2023-04-06T04:55:05;49.00;;;33.15;;
26038;SDS011;13815;52.374;4.882;2023-04-06T04:57:31;53.65;;;34.63;;
26038;SDS011;13815;52.374;4.882;2023-04-06T04:59:56;50.05;;;31.65;;
26038;SDS011;13815;52.374;4.882;2023-04-06T05:02:22;50.30;;;33.67;;
26038;SDS011;13815;52.374;4.882;2023-04-06T05:04:48;51.05;;;34.28;;
26038;SDS011;13815;52.374;4.882;2023-04-06T05:07:13;49.95;;;34.17;;
26038;SDS011;13815;52.374;4.882;2023-04-06T05:09:45;51.42;;;35.80;;
26038;SDS011;13815;52.374;4.882;2023-04-06T05:12:11;52.70;;;32.20;;
26038;SDS011;13815;52.374;4.882;2023-04-06T05:14:36;52.55;;;31.70;;
26038;SDS011;13815;52.374;4.882;2023-04-06T05:17:02;53.28;;;35.05;;
26038;SDS011;13815;52.374;4.882;2023-04-06T05:19:27;49.10;;;33.38;;
26038;SDS011;13815;52.374;4.882;2023-04-06T05:21:52;53.60;;;35.42;;
26038;SDS011;13815;52.374;4.882;2023-04-06T05:24:18;48.85;;;32.67;;
26038;SDS011;13815;52.374;4.882;2023-04-06T05:26:43;47.08;;;32.28;;
26038;SDS011;13815;52.374;4.882;2023-04-06T05:29:09;46.88;;;31.27;;
26038;SDS011;13815;52.374;4.882;2023-04-06T05:31:35;47.63;;;33.30;;
26038;SDS011;13815;52.374;4.882;2023-04-06T05:34:00;46.15;;;30.40;;
26038;SDS011;13815;52.374;4.882;2023-04-06T05:36:26;46.53;;;32.25;;
26038;SDS011;13815;52.374;4.882;2023-04-06T05:38:51;48.47;;;33.45;;
26038;SDS011;13815;52.374;4.882;2023-04-06T05:41:17;49.55;;;33.50;;
26038;SDS011;13815;52.374;4.882;2023-04-06T05:43:43;45.95;;;32.90;;
26038;SDS011;13815;52.374;4.882;2023-04-06T05:46:08;45.30;;;31.40;;
26038;SDS011;13815;52.374;4.882;2023-04-06T05:48:33;43.17;;;28.15;;
26038;SDS011;13815;52.374;4.882;2023-04-06T05:50:59;41.65;;;27.75;;
26038;SDS011;13815;52.374;4.882;2023-04-06T05:53:25;44.90;;;27.95;;
26038;SDS011;13815;52.374;4.882;2023-04-06T05:55:51;40.13;;;27.88;;
26038;SDS011;13815;52.374;4.882;2023-04-06T05:58:16;41.92;;;28.60;;
26038;SDS011;13815;52.374;4.882;2023-04-06T06:00:42;40.78;;;28.67;;
26038;SDS011;13815;52.374;4.882;2023-04-06T06:03:10;41.50;;;29.20;;
26038;SDS011;13815;52.374;4.882;2023-04-06T06:05:38;45.13;;;31.50;;
26038;SDS011;13815;52.374;4.882;2023-04-06T06:08:03;52.67;;;34.33;;
26038;SDS011;13815;52.374;4.882;2023-04-06T06:10:29;46.10;;;32.25;;
26038;SDS011;13815;52.374;4.882;2023-04-06T06:12:54;46.47;;;33.38;;
26038;SDS011;13815;52.374;4.882;2023-04-06T06:15:20;50.53;;;32.90;;
26038;SDS011;13815;52.374;4.882;2023-04-06T06:17:45;45.70;;;32.50;;
26038;SDS011;13815;52.374;4.882;2023-04-06T06:20:11;45.25;;;32.08;;
26038;SDS011;13815;52.374;4.882;2023-04-06T06:22:37;46.95;;;32.50;;
26038;SDS011;13815;52.374;4.882;2023-04-06T06:25:03;43.55;;;31.33;;
26038;SDS011;13815;52.374;4.882;2023-04-06T06:27:28;43.47;;;30.42;;
26038;SDS011;13815;52.374;4.882;2023-04-06T06:29:54;45.88;;;30.80;;
26038;SDS011;13815;52.374;4.882;2023-04-06T06:32:20;43.97;;;30.38;;
26038;SDS011;13815;52.374;4.882;2023-04-06T06:34:45;45.78;;;30.33;;
26038;SDS011;13815;52.374;4.882;2023-04-06T06:37:10;47.13;;;30.60;;
26038;SDS011;13815;52.374;4.882;2023-04-06T06:39:36;42.80;;;31.02;;
26038;SDS011;13815;52.374;4.882;2023-04-06T06:42:01;46.58;;;30.45;;
26038;SDS011;13815;52.374;4.882;2023-04-06T06:44:27;46.85;;;32.83;;
26038;SDS011;13815;52.374;4.882;2023-04-06T06:46:53;45.75;;;33.63;;
26038;SDS011;13815;52.374;4.882;2023-04-06T06:49:18;48.17;;;31.40;;
26038;SDS011;13815;52.374;4.882;2023-04-06T06:51:44;42.15;;;30.48;;
26038;SDS011;13815;52.374;4.882;2023-04-06T06:54:10;41.50;;;29.27;;
26038;SDS011;13815;52.374;4.882;2023-04-06T06:56:36;46.72;;;32.47;;
26038;SDS011;13815;52.374;4.882;2023-04-06T06:59:02;46.92;;;32.22;;
26038;SDS011;13815;52.374;4.882;2023-04-06T07:01:28;41.90;;;29.90;;
26038;SDS011;13815;52.374;4.882;2023-04-06T07:03:53;44.88;;;28.00;;
26038;SDS011;13815;52.374;4.882;2023-04-06T07:06:19;41.55;;;28.33;;
26038;SDS011;13815;52.374;4.882;2023-04-06T07:08:45;38.53;;;27.50;;
26038;SDS011;13815;52.374;4.882;2023-04-06T07:11:10;37.63;;;27.20;;
26038;SDS011;13815;52.374;4.882;2023-04-06T07:13:35;42.40;;;29.08;;
26038;SDS011;13815;52.374;4.882;2023-04-06T07:16:01;39.20;;;29.45;;
26038;SDS011;13815;52.374;4.882;2023-04-06T07:18:26;42.35;;;28.63;;
26038;SDS011;13815;52.374;4.882;2023-04-06T07:20:52;41.20;;;28.70;;
26038;SDS011;13815;52.374;4.882;2023-04-06T07:23:17;38.55;;;28.35;;
26038;SDS011;13815;52.374;4.882;2023-04-06T07:25:42;41.05;;;27.65;;
26038;SDS011;13815;52.374;4.882;2023-04-06T07:28:08;42.03;;;28.83;;
26038;SDS011;13815;52.374;4.882;2023-04-06T07:30:33;37.45;;;27.00;;
26038;SDS011;13815;52.374;4.882;2023-04-06T07:32:58;36.45;;;26.90;;
26038;SDS011;13815;52.374;4.882;2023-04-06T07:35:24;43.45;;;27.67;;
26038;SDS011;13815;52.374;4.882;2023-04-06T07:37:55;40.40;;;27.83;;
26038;SDS011;13815;52.374;4.882;2023-04-06T07:40:20;37.42;;;26.45;;
26038;SDS011;13815;52.374;4.882;2023-04-06T07:42:46;38.10;;;27.58;;
26038;SDS011;13815;52.374;4.882;2023-04-06T07:45:12;37.08;;;24.75;;
26038;SDS011;13815;52.374;4.882;2023-04-06T07:47:37;39.30;;;26.13;;
26038;SDS011;13815;52.374;4.882;2023-04-06T07:50:06;36.85;;;27.63;;
26038;SDS011;13815;52.374;4.882;2023-04-06T07:52:31;35.85;;;25.75;;
26038;SDS011;13815;52.374;4.882;2023-04-06T07:55:01;37.22;;;28.00;;
26038;SDS011;13815;52.374;4.882;2023-04-06T07:57:26;37.75;;;27.45;;
26038;SDS011;13815;52.374;4.882;2023-04-06T07:59:51;40.65;;;27.40;;
26038;SDS011;13815;52.374;4.882;2023-04-06T08:02:17;41.25;;;29.20;;
26038;SDS011;13815;52.374;4.882;2023-04-06T08:04:43;40.25;;;28.58;;
26038;SDS011;13815;52.374;4.882;2023-04-06T08:07:08;42.25;;;30.90;;
26038;SDS011;13815;52.374;4.882;2023-04-06T08:09:34;41.33;;;29.08;;
26038;SDS011;13815;52.374;4.882;2023-04-06T08:11:59;37.42;;;28.23;;
26038;SDS011;13815;52.374;4.882;2023-04-06T08:14:25;39.88;;;31.10;;
26038;SDS011;13815;52.374;4.882;2023-04-06T08:16:50;40.67;;;30.33;;
26038;SDS011;13815;52.374;4.882;2023-04-06T08:19:16;38.72;;;30.23;;
26038;SDS011;13815;52.374;4.882;2023-04-06T08:21:43;36.90;;;28.40;;
26038;SDS011;13815;52.374;4.882;2023-04-06T08:24:09;35.70;;;28.65;;
26038;SDS011;13815;52.374;4.882;2023-04-06T08:26:34;36.35;;;29.33;;
26038;SDS011;13815;52.374;4.882;2023-04-06T08:29:03;37.70;;;29.50;;
26038;SDS011;13815;52.374;4.882;2023-04-06T08:31:29;33.35;;;28.25;;
26038;SDS011;13815;52.374;4.882;2023-04-06T08:33:55;36.20;;;28.55;;
26038;SDS011;13815;52.374;4.882;2023-04-06T08:36:21;34.55;;;27.90;;
26038;SDS011;13815;52.374;4.882;2023-04-06T08:38:48;33.67;;;28.70;;
26038;SDS011;13815;52.374;4.882;2023-04-06T08:41:16;34.40;;;27.45;;
26038;SDS011;13815;52.374;4.882;2023-04-06T08:43:43;36.15;;;28.30;;
26038;SDS011;13815;52.374;4.882;2023-04-06T08:46:13;33.63;;;27.92;;
26038;SDS011;13815;52.374;4.882;2023-04-06T08:48:39;32.88;;;26.27;;
26038;SDS011;13815;52.374;4.882;2023-04-06T08:51:05;34.65;;;26.73;;
26038;SDS011;13815;52.374;4.882;2023-04-06T08:53:31;34.58;;;27.73;;
26038;SDS011;13815;52.374;4.882;2023-04-06T08:55:56;33.53;;;26.45;;
26038;SDS011;13815;52.374;4.882;2023-04-06T08:58:23;33.47;;;27.45;;
26038;SDS011;13815;52.374;4.882;2023-04-06T09:00:50;35.20;;;26.63;;
26038;SDS011;13815;52.374;4.882;2023-04-06T09:03:16;32.35;;;26.95;;
26038;SDS011;13815;52.374;4.882;2023-04-06T09:05:44;30.55;;;25.98;;
26038;SDS011;13815;52.374;4.882;2023-04-06T09:08:11;32.92;;;27.92;;
26038;SDS011;13815;52.374;4.882;2023-04-06T09:10:38;31.30;;;26.60;;
26038;SDS011;13815;52.374;4.882;2023-04-06T09:13:05;28.20;;;25.30;;
26038;SDS011;13815;52.374;4.882;2023-04-06T09:15:31;27.40;;;24.73;;
26038;SDS011;13815;52.374;4.882;2023-04-06T09:17:57;28.40;;;25.60;;
26038;SDS011;13815;52.374;4.882;2023-04-06T09:20:23;29.95;;;25.75;;
26038;SDS011;13815;52.374;4.882;2023-04-06T09:22:53;26.80;;;24.10;;
26038;SDS011;13815;52.374;4.882;2023-04-06T09:25:19;25.67;;;23.38;;
26038;SDS011;13815;52.374;4.882;2023-04-06T09:27:46;26.05;;;23.50;;
26038;SDS011;13815;52.374;4.882;2023-04-06T09:30:12;25.00;;;22.58;;
26038;SDS011;13815;52.374;4.882;2023-04-06T09:32:52;23.77;;;21.77;;
26038;SDS011;13815;52.374;4.882;2023-04-06T09:35:19;22.05;;;20.15;;
26038;SDS011;13815;52.374;4.882;2023-04-06T09:37:45;21.75;;;20.05;;
26038;SDS011;13815;52.374;4.882;2023-04-06T09:40:12;20.00;;;18.35;;
26038;SDS011;13815;52.374;4.882;2023-04-06T09:42:40;18.80;;;17.50;;
26038;SDS011;13815;52.374;4.882;2023-04-06T09:45:06;17.63;;;16.42;;
26038;SDS011;13815;52.374;4.882;2023-04-06T09:47:32;17.60;;;16.25;;
26038;SDS011;13815;52.374;4.882;2023-04-06T09:49:58;16.23;;;15.20;;
26038;SDS011;13815;52.374;4.882;2023-04-06T09:52:27;14.60;;;14.00;;
26038;SDS011;13815;52.374;4.882;2023-04-06T09:54:59;13.63;;;12.90;;
26038;SDS011;13815;52.374;4.882;2023-04-06T10:00:08;11.50;;;11.10;;
26038;SDS011;13815;52.374;4.882;2023-04-06T10:07:35;8.52;;;8.23;;
26038;SDS011;13815;52.374;4.882;2023-04-06T10:10:02;8.55;;;8.20;;
26038;SDS011;13815;52.374;4.882;2023-04-06T10:12:27;7.72;;;7.38;;
26038;SDS011;13815;52.374;4.882;2023-04-06T10:14:53;8.23;;;7.72;;
26038;SDS011;13815;52.374;4.882;2023-04-06T10:17:21;8.30;;;7.70;;
26038;SDS011;13815;52.374;4.882;2023-04-06T10:22:34;7.65;;;7.45;;
26038;SDS011;13815;52.374;4.882;2023-04-06T10:25:02;8.27;;;7.68;;
26038;SDS011;13815;52.374;4.882;2023-04-06T10:27:28;7.40;;;7.20;;
26038;SDS011;13815;52.374;4.882;2023-04-06T10:29:54;8.15;;;7.60;;
26038;SDS011;13815;52.374;4.882;2023-04-06T10:32:35;6.80;;;6.60;;
26038;SDS011;13815;52.374;4.882;2023-04-06T10:35:07;7.88;;;7.30;;
26038;SDS011;13815;52.374;4.882;2023-04-06T10:38:00;6.60;;;6.40;;
26038;SDS011;13815;52.374;4.882;2023-04-06T10:42:53;6.60;;;6.40;;
26038;SDS011;13815;52.374;4.882;2023-04-06T10:45:20;7.30;;;6.80;;
26038;SDS011;13815;52.374;4.882;2023-04-06T10:47:49;6.93;;;6.50;;
26038;SDS011;13815;52.374;4.882;2023-04-06T10:50:17;5.90;;;5.80;;
26038;SDS011;13815;52.374;4.882;2023-04-06T10:52:45;6.38;;;6.05;;
26038;SDS011;13815;52.374;4.882;2023-04-06T10:55:11;5.70;;;5.60;;
26038;SDS011;13815;52.374;4.882;2023-04-06T10:57:38;4.93;;;4.53;;
26038;SDS011;13815;52.374;4.882;2023-04-06T11:00:04;5.00;;;4.53;;
26038;SDS011;13815;52.374;4.882;2023-04-06T11:02:34;4.40;;;4.30;;
26038;SDS011;13815;52.374;4.882;2023-04-06T11:05:01;4.90;;;4.80;;
26038;SDS011;13815;52.374;4.882;2023-04-06T11:07:26;5.50;;;5.10;;
26038;SDS011;13815;52.374;4.882;2023-04-06T11:09:54;5.63;;;5.30;;
26038;SDS011;13815;52.374;4.882;2023-04-06T11:14:58;4.80;;;4.70;;
26038;SDS011;13815;52.374;4.882;2023-04-06T11:17:29;4.63;;;4.53;;
26038;SDS011;13815;52.374;4.882;2023-04-06T11:19:56;4.50;;;4.40;;
26038;SDS011;13815;52.374;4.882;2023-04-06T11:22:22;4.43;;;4.10;;
26038;SDS011;13815;52.374;4.882;2023-04-06T11:24:47;3.95;;;3.78;;
26038;SDS011;13815;52.374;4.882;2023-04-06T11:27:14;3.92;;;3.72;;
26038;SDS011;13815;52.374;4.882;2023-04-06T11:29:41;3.75;;;3.50;;
26038;SDS011;13815;52.374;4.882;2023-04-06T11:32:07;3.03;;;2.30;;
26038;SDS011;13815;52.374;4.882;2023-04-06T11:34:37;1.80;;;1.80;;
26038;SDS011;13815;52.374;4.882;2023-04-06T11:37:04;3.08;;;2.10;;
26038;SDS011;13815;52.374;4.882;2023-04-06T11:39:37;2.78;;;1.73;;
26038;SDS011;13815;52.374;4.882;2023-04-06T11:42:09;3.65;;;1.45;;
26038;SDS011;13815;52.374;4.882;2023-04-06T11:44:35;3.40;;;1.33;;
26038;SDS011;13815;52.374;4.882;2023-04-06T11:47:04;0.85;;;0.85;;
26038;SDS011;13815;52.374;4.882;2023-04-06T11:49:31;2.38;;;0.88;;
26038;SDS011;13815;52.374;4.882;2023-04-06T11:51:58;1.95;;;0.70;;
26038;SDS011;13815;52.374;4.882;2023-04-06T11:54:30;0.30;;;0.30;;
26038;SDS011;13815;52.374;4.882;2023-04-06T11:57:00;3.15;;;0.60;;
26038;SDS011;13815;52.374;4.882;2023-04-06T11:59:26;0.30;;;0.30;;
26038;SDS011;13815;52.374;4.882;2023-04-06T12:01:52;2.55;;;0.50;;
26038;SDS011;13815;52.374;4.882;2023-04-06T12:04:18;6.32;;;0.65;;
26038;SDS011;13815;52.374;4.882;2023-04-06T12:06:44;0.20;;;0.20;;
26038;SDS011;13815;52.374;4.882;2023-04-06T12:09:09;2.92;;;0.40;;
26038;SDS011;13815;52.374;4.882;2023-04-06T12:11:34;3.10;;;0.35;;
26038;SDS011;13815;52.374;4.882;2023-04-06T12:14:00;0.10;;;0.10;;
26038;SDS011;13815;52.374;4.882;2023-04-06T12:16:29;3.13;;;0.40;;
26038;SDS011;13815;52.374;4.882;2023-04-06T12:18:55;0.10;;;0.10;;
26038;SDS011;13815;52.374;4.882;2023-04-06T12:21:21;0.10;;;0.10;;
26038;SDS011;13815;52.374;4.882;2023-04-06T12:23:46;3.08;;;0.32;;
26038;SDS011;13815;52.374;4.882;2023-04-06T12:26:13;2.05;;;0.32;;
26038;SDS011;13815;52.374;4.882;2023-04-06T12:28:38;0.00;;;0.00;;
26038;SDS011;13815;52.374;4.882;2023-04-06T12:31:04;1.55;;;0.20;;
26038;SDS011;13815;52.374;4.882;2023-04-06T12:33:29;0.00;;;0.00;;
26038;SDS011;13815;52.374;4.882;2023-04-06T12:35:54;0.00;;;0.00;;
26038;SDS011;13815;52.374;4.882;2023-04-06T12:38:20;0.00;;;0.00;;
26038;SDS011;13815;52.374;4.882;2023-04-06T12:40:46;0.00;;;0.00;;
26038;SDS011;13815;52.374;4.882;2023-04-06T12:43:11;1.35;;;0.15;;
26038;SDS011;13815;52.374;4.882;2023-04-06T12:48:56;2.65;;;0.32;;
26038;SDS011;13815;52.374;4.882;2023-04-06T12:51:23;0.00;;;0.00;;
26038;SDS011;13815;52.374;4.882;2023-04-06T12:53:50;0.10;;;0.10;;
26038;SDS011;13815;52.374;4.882;2023-04-06T12:56:16;0.20;;;0.20;;
26038;SDS011;13815;52.374;4.882;2023-04-06T12:58:42;5.90;;;0.73;;
26038;SDS011;13815;52.374;4.882;2023-04-06T13:01:11;0.10;;;0.10;;
26038;SDS011;13815;52.374;4.882;2023-04-06T13:03:37;0.10;;;0.10;;
26038;SDS011;13815;52.374;4.882;2023-04-06T13:06:03;2.72;;;0.40;;
26038;SDS011;13815;52.374;4.882;2023-04-06T13:08:29;2.50;;;0.47;;
26038;SDS011;13815;52.374;4.882;2023-04-06T13:10:54;0.10;;;0.10;;
26038;SDS011;13815;52.374;4.882;2023-04-06T13:13:24;2.55;;;0.50;;
26038;SDS011;13815;52.374;4.882;2023-04-06T13:15:50;4.03;;;0.73;;
26038;SDS011;13815;52.374;4.882;2023-04-06T13:18:16;0.10;;;0.10;;
26038;SDS011;13815;52.374;4.882;2023-04-06T13:20:42;0.17;;;0.17;;
26038;SDS011;13815;52.374;4.882;2023-04-06T13:23:07;0.50;;;0.50;;
26038;SDS011;13815;52.374;4.882;2023-04-06T13:25:32;0.50;;;0.50;;
26038;SDS011;13815;52.374;4.882;2023-04-06T13:27:58;2.15;;;1.15;;
26038;SDS011;13815;52.374;4.882;2023-04-06T13:30:24;0.40;;;0.40;;
26038;SDS011;13815;52.374;4.882;2023-04-06T13:32:49;1.10;;;0.38;;
26038;SDS011;13815;52.374;4.882;2023-04-06T13:35:14;0.75;;;0.75;;
26038;SDS011;13815;52.374;4.882;2023-04-06T13:37:41;0.57;;;0.57;;
26038;SDS011;13815;52.374;4.882;2023-04-06T13:40:07;0.20;;;0.20;;
26038;SDS011;13815;52.374;4.882;2023-04-06T13:42:33;1.95;;;0.40;;
26038;SDS011;13815;52.374;4.882;2023-04-06T13:45:01;0.60;;;0.60;;
26038;SDS011;13815;52.374;4.882;2023-04-06T13:47:26;3.10;;;0.60;;
26038;SDS011;13815;52.374;4.882;2023-04-06T13:49:52;1.20;;;1.20;;
26038;SDS011;13815;52.374;4.882;2023-04-06T13:52:19;0.52;;;0.52;;
26038;SDS011;13815;52.374;4.882;2023-04-06T13:54:44;1.23;;;0.68;;
26038;SDS011;13815;52.374;4.882;2023-04-06T13:57:10;1.27;;;1.17;;
26038;SDS011;13815;52.374;4.882;2023-04-06T13:59:38;0.22;;;0.22;;
26038;SDS011;13815;52.374;4.882;2023-04-06T14:02:08;3.35;;;0.47;;
26038;SDS011;13815;52.374;4.882;2023-04-06T14:04:34;0.70;;;0.70;;
26038;SDS011;13815;52.374;4.882;2023-04-06T14:07:00;2.20;;;0.82;;
26038;SDS011;13815;52.374;4.882;2023-04-06T14:09:26;4.43;;;1.10;;
26038;SDS011;13815;52.374;4.882;2023-04-06T14:11:53;0.65;;;0.65;;
26038;SDS011;13815;52.374;4.882;2023-04-06T14:14:18;4.38;;;1.08;;
26038;SDS011;13815;52.374;4.882;2023-04-06T14:16:44;0.98;;;0.98;;
26038;SDS011;13815;52.374;4.882;2023-04-06T14:19:14;1.02;;;1.02;;
26038;SDS011;13815;52.374;4.882;2023-04-06T14:21:41;4.65;;;0.95;;
26038;SDS011;13815;52.374;4.882;2023-04-06T14:24:07;1.00;;;1.00;;
26038;SDS011;13815;52.374;4.882;2023-04-06T14:26:33;0.57;;;0.57;;
26038;SDS011;13815;52.374;4.882;2023-04-06T14:28:58;0.50;;;0.50;;
26038;SDS011;13815;52.374;4.882;2023-04-06T14:31:25;4.22;;;0.95;;
26038;SDS011;13815;52.374;4.882;2023-04-06T14:33:51;0.60;;;0.60;;
26038;SDS011;13815;52.374;4.882;2023-04-06T14:36:18;3.85;;;1.00;;
26038;SDS011;13815;52.374;4.882;2023-04-06T14:38:43;0.60;;;0.60;;
26038;SDS011;13815;52.374;4.882;2023-04-06T14:41:14;4.22;;;1.13;;
26038;SDS011;13815;52.374;4.882;2023-04-06T14:43:43;4.03;;;1.75;;